Syre, Minnesota
Current Conditions -  °F | °C
As of 6:15 PM on Thursday 27 Nov 2014 (Local Time) from K3N8 Reporting Station
Overcast Overcast  
Wind Chill: -3°   Ceiling: 9000
Heat Index:   Visibility: 10mi
Dew Point: -3°   Wind: 6mph
Humidity: 63%   Direction: 170°S
Pressure: 30.22"   Gusts: NA
Location:  47.2382°N, 96.2513°W
Report Text: K3N8 280015Z AUTO 17005KT 10SM OVC090 M14/M19 A3022 RMK AO2 T11371193
Loading
Personal Weather Stations






























Interactive Weather Map New forecast layout! Learn more

10-Day Weather Forecast

Advertisements
Track Severe Weather on mobile